• Join FlightAware (Why Join?)
  • Login
  • US Flag 
03:10AM EDT


 

Airport Tracker/Info


-or-


 

Live Flight TrackerFlight Track Log ✈ GJS6221 ✈ 22-Jun-2013 ✈ CYUL - KLGA

Flight Track Log - Related Links

Times and Time Zones

All times are in EDT time to prevent confusion due to time zone crossing. See the GJS6221 flight status page for this flight to view local times or setup timezone preferences in your user account.

Time Position Orientation Groundspeed Altitude Reporting Facility
EDT Latitude Longitude Course Direction KTS MPH feet Rate Location/Type
07:20AM 45.4667 -73.7000 203° Southwest 140 161 1,600  Level Montreal Center
07:21AM 45.5167 -73.6500 35° Northeast 190 219 3,200 1,980 Climbing Montreal Center
07:22AM 45.5167 -73.5833 90° East 230 265 5,600 2,340 Climbing Montreal Center
07:23AM 45.4667 -73.5333 145° Southeast 260 299 7,900 2,640 Climbing Montreal Center
07:24AM 45.3833 -73.5833 203° Southwest 270 311 10,900 2,580 Climbing Montreal Center
07:25AM 44.9142 -74.0181 203° Southwest  Level FlightAware Approximate
07:25AM 45.3167 -73.6333 208° Southwest 300 345 13,100  Level Montreal Center
07:26AM 45.2333 -73.7167 215° Southwest 330 380 15,200 2,040 Climbing Montreal Center
07:27AM 45.1500 -73.7833 209° Southwest 340 391 17,200 1,560 Climbing Montreal Center
07:28AM 45.0667 -73.8333 203° Southwest 350 403 18,400 1,440 Climbing Montreal Center
07:29AM 44.9667 -73.9167 211° Southwest 370 426 20,100 1,680 Climbing Montreal Center
07:30AM 44.8667 -73.9167 180° South 390 449 21,800 1,380 Climbing Montreal Center
07:31AM 44.7500 -73.9000 174° South 410 472 22,900 1,140 Climbing Montreal Center
07:32AM 44.6333 -73.9000 180° South 440 506 24,100 1,440 Climbing Montreal Center
07:33AM 44.5167 -73.8833 174° South 440 506 25,800 1,500 Climbing Montreal Center
07:34AM 44.3833 -73.8833 180° South 440 506 27,100 1,080 Climbing Montreal Center
07:35AM 44.2667 -73.8667 174° South 450 518 28,000 420 Climbing Montreal Center
07:36AM 44.1167 -73.8667 180° South 470 541 28,000  Level Montreal Center
07:37AM 44.0000 -73.8500 174° South 480 552 28,000  Level Montreal Center
07:38AM 43.8500 -73.8667 185° South 490 564 28,000  Level Montreal Center
07:39AM 43.7167 -73.8333 170° South 490 564 28,000  Level Montreal Center
07:40AM 43.5833 -73.8500 185° South 490 564 28,000  Level Montreal Center
07:41AM 43.4667 -73.8333 174° South 480 552 28,000  Level Montreal Center
07:42AM 43.2986 -73.8322 180° South 489 563 28,000  Level Boston Center
07:43AM 43.1611 -73.8264 178° South 489 563 28,000  Level Boston Center
07:44AM 43.0278 -73.8203 178° South 489 563 28,000 -120 Level Boston Center
07:45AM 42.8839 -73.8144 178° South 489 563 27,800 -1,560 Descending Boston Center
07:46AM 42.7547 -73.8058 177° South 476 548 24,900 -2,460 Descending Boston Center
07:47AM 42.6322 -73.7861 173° South 463 533 22,900 -1,860 Descending Boston Center
07:48AM 42.5072 -73.7608 172° South 443 510 21,200 -1,620 Descending Boston Center
07:49AM 42.3908 -73.7333 170° South 424 488 19,700 -1,320 Descending Boston Center
07:50AM 42.2786 -73.7083 171° South 418 481 18,600 -900 Descending Boston Center
07:51AM 42.1722 -73.7119 181° South 403 464 18,000 -300 Descending Boston Center
07:52AM 42.0742 -73.7267 186° South 394 453 18,000  Level Boston Center
07:53AM 41.9533 -73.7381 184° South 394 453 18,000 -180 Level Boston Center
07:54AM 41.8531 -73.7500 185° South 407 468 17,700 -1,380 Descending Boston Center
07:55AM 41.7342 -73.7614 184° South 401 461 15,300 -2,220 Descending Boston Center
07:56AM 41.6422 -73.7706 184° South 383 441 13,300 -2,220 Descending Boston Center
07:57AM 41.5317 -73.7822 185° South 377 434 10,900 -1,620 Descending Boston Center
07:59AM 41.4000 -73.8000 186° South 287 330 9,200 -1,320 Descending New York TRACON
08:00AM 41.3333 -73.7833 169° South 290 334 7,800 -1,380 Descending New York TRACON
08:01AM 41.2667 -73.7333 151° Southeast 272 313 6,600 -1,380 Descending New York TRACON
08:02AM 41.2000 -73.6833 151° Southeast 254 292 5,100 -1,320 Descending New York TRACON
08:03AM 41.1333 -73.6667 169° South 253 291 4,000 -600 Descending New York TRACON
08:04AM 41.0667 -73.6500 169° South 247 284 4,000  Level New York TRACON
08:04AM 41.0000 -73.6333 169° South 247 284 4,000 -240 Level New York TRACON
08:05AM 40.9333 -73.6500 191° South 235 270 3,600 -540 Descending New York TRACON
08:06AM 40.9000 -73.6833 217° Southwest 210 242 3,000 -360 Descending New York TRACON
08:07AM 40.8500 -73.7167 207° Southwest 210 242 3,000 -480 Level New York TRACON
08:08AM 40.8000 -73.7500 207° Southwest 199 229 2,100 -900 Descending New York TRACON